sensor_id;sensor_type;location;lat;lon;timestamp;P1;durP1;ratioP1;P2;durP2;ratioP2
74926;SDS011;63488;48.092;-1.640;2023-04-16T00:00:35;12.45;;;8.25;;
74926;SDS011;63488;48.092;-1.640;2023-04-16T00:03:01;12.68;;;8.30;;
74926;SDS011;63488;48.092;-1.640;2023-04-16T00:05:26;10.20;;;7.50;;
74926;SDS011;63488;48.092;-1.640;2023-04-16T00:07:51;11.52;;;6.78;;
74926;SDS011;63488;48.092;-1.640;2023-04-16T00:10:17;12.93;;;6.93;;
74926;SDS011;63488;48.092;-1.640;2023-04-16T00:12:42;13.13;;;7.80;;
74926;SDS011;63488;48.092;-1.640;2023-04-16T00:15:08;9.82;;;6.35;;
74926;SDS011;63488;48.092;-1.640;2023-04-16T00:17:33;18.63;;;11.20;;
74926;SDS011;63488;48.092;-1.640;2023-04-16T00:19:58;10.77;;;9.38;;
74926;SDS011;63488;48.092;-1.640;2023-04-16T00:22:24;15.55;;;11.45;;
74926;SDS011;63488;48.092;-1.640;2023-04-16T00:24:49;16.40;;;11.73;;
74926;SDS011;63488;48.092;-1.640;2023-04-16T00:27:14;14.93;;;10.70;;
74926;SDS011;63488;48.092;-1.640;2023-04-16T00:29:40;17.63;;;13.63;;
74926;SDS011;63488;48.092;-1.640;2023-04-16T00:32:05;16.60;;;12.63;;
74926;SDS011;63488;48.092;-1.640;2023-04-16T00:34:31;15.82;;;12.63;;
74926;SDS011;63488;48.092;-1.640;2023-04-16T00:36:57;16.27;;;12.50;;
74926;SDS011;63488;48.092;-1.640;2023-04-16T00:39:22;14.15;;;10.55;;
74926;SDS011;63488;48.092;-1.640;2023-04-16T00:41:47;13.55;;;9.88;;
74926;SDS011;63488;48.092;-1.640;2023-04-16T00:44:13;14.10;;;10.30;;
74926;SDS011;63488;48.092;-1.640;2023-04-16T00:46:38;15.27;;;11.25;;
74926;SDS011;63488;48.092;-1.640;2023-04-16T00:49:05;13.10;;;9.95;;
74926;SDS011;63488;48.092;-1.640;2023-04-16T00:51:31;14.85;;;8.80;;
74926;SDS011;63488;48.092;-1.640;2023-04-16T00:53:57;15.93;;;9.85;;
74926;SDS011;63488;48.092;-1.640;2023-04-16T00:56:22;13.40;;;8.52;;
74926;SDS011;63488;48.092;-1.640;2023-04-16T00:58:48;12.38;;;8.88;;
74926;SDS011;63488;48.092;-1.640;2023-04-16T01:01:13;12.70;;;8.07;;
74926;SDS011;63488;48.092;-1.640;2023-04-16T01:03:41;12.25;;;8.48;;
74926;SDS011;63488;48.092;-1.640;2023-04-16T01:06:07;11.00;;;8.07;;
74926;SDS011;63488;48.092;-1.640;2023-04-16T01:08:33;10.52;;;7.20;;
74926;SDS011;63488;48.092;-1.640;2023-04-16T01:10:58;13.27;;;7.45;;
74926;SDS011;63488;48.092;-1.640;2023-04-16T01:13:24;9.73;;;5.78;;
74926;SDS011;63488;48.092;-1.640;2023-04-16T01:15:50;10.88;;;6.65;;
74926;SDS011;63488;48.092;-1.640;2023-04-16T01:18:16;11.25;;;6.07;;
74926;SDS011;63488;48.092;-1.640;2023-04-16T01:20:41;8.32;;;5.15;;
74926;SDS011;63488;48.092;-1.640;2023-04-16T01:23:07;8.10;;;4.97;;
74926;SDS011;63488;48.092;-1.640;2023-04-16T01:25:32;9.90;;;5.30;;
74926;SDS011;63488;48.092;-1.640;2023-04-16T01:27:58;5.78;;;3.92;;
74926;SDS011;63488;48.092;-1.640;2023-04-16T01:30:23;7.20;;;4.07;;
74926;SDS011;63488;48.092;-1.640;2023-04-16T01:32:49;7.47;;;4.05;;
74926;SDS011;63488;48.092;-1.640;2023-04-16T01:35:14;9.40;;;4.10;;
74926;SDS011;63488;48.092;-1.640;2023-04-16T01:37:40;9.25;;;4.15;;
74926;SDS011;63488;48.092;-1.640;2023-04-16T01:40:06;9.30;;;3.97;;
74926;SDS011;63488;48.092;-1.640;2023-04-16T01:42:31;6.47;;;3.70;;
74926;SDS011;63488;48.092;-1.640;2023-04-16T01:44:56;5.32;;;3.10;;
74926;SDS011;63488;48.092;-1.640;2023-04-16T01:47:22;8.65;;;3.13;;
74926;SDS011;63488;48.092;-1.640;2023-04-16T01:49:47;8.27;;;3.47;;
74926;SDS011;63488;48.092;-1.640;2023-04-16T01:52:12;8.32;;;3.20;;
74926;SDS011;63488;48.092;-1.640;2023-04-16T01:54:38;8.35;;;3.17;;
74926;SDS011;63488;48.092;-1.640;2023-04-16T01:57:03;6.88;;;2.97;;
74926;SDS011;63488;48.092;-1.640;2023-04-16T01:59:28;7.40;;;3.13;;
74926;SDS011;63488;48.092;-1.640;2023-04-16T02:01:54;6.75;;;3.30;;
74926;SDS011;63488;48.092;-1.640;2023-04-16T02:04:19;7.72;;;2.90;;
74926;SDS011;63488;48.092;-1.640;2023-04-16T02:06:45;6.35;;;3.10;;
74926;SDS011;63488;48.092;-1.640;2023-04-16T02:09:10;7.03;;;3.60;;
74926;SDS011;63488;48.092;-1.640;2023-04-16T02:11:35;6.82;;;5.15;;
74926;SDS011;63488;48.092;-1.640;2023-04-16T02:14:00;9.13;;;4.30;;
74926;SDS011;63488;48.092;-1.640;2023-04-16T02:16:26;5.78;;;3.72;;
74926;SDS011;63488;48.092;-1.640;2023-04-16T02:18:51;7.22;;;3.25;;
74926;SDS011;63488;48.092;-1.640;2023-04-16T02:21:16;8.82;;;3.67;;
74926;SDS011;63488;48.092;-1.640;2023-04-16T02:23:42;10.20;;;4.25;;
74926;SDS011;63488;48.092;-1.640;2023-04-16T02:26:11;6.82;;;3.95;;
74926;SDS011;63488;48.092;-1.640;2023-04-16T02:28:37;7.70;;;3.40;;
74926;SDS011;63488;48.092;-1.640;2023-04-16T02:31:02;7.10;;;3.35;;
74926;SDS011;63488;48.092;-1.640;2023-04-16T02:33:28;7.88;;;3.33;;
74926;SDS011;63488;48.092;-1.640;2023-04-16T02:35:53;5.40;;;2.90;;
74926;SDS011;63488;48.092;-1.640;2023-04-16T02:38:18;6.45;;;3.10;;
74926;SDS011;63488;48.092;-1.640;2023-04-16T02:40:44;6.38;;;2.80;;
74926;SDS011;63488;48.092;-1.640;2023-04-16T02:43:09;5.60;;;3.03;;
74926;SDS011;63488;48.092;-1.640;2023-04-16T02:45:34;10.02;;;3.65;;
74926;SDS011;63488;48.092;-1.640;2023-04-16T02:48:00;6.97;;;3.08;;
74926;SDS011;63488;48.092;-1.640;2023-04-16T02:50:25;7.38;;;3.00;;
74926;SDS011;63488;48.092;-1.640;2023-04-16T02:52:51;8.88;;;2.90;;
74926;SDS011;63488;48.092;-1.640;2023-04-16T02:55:16;4.95;;;3.20;;
74926;SDS011;63488;48.092;-1.640;2023-04-16T02:57:41;8.50;;;2.90;;
74926;SDS011;63488;48.092;-1.640;2023-04-16T03:00:07;8.05;;;2.83;;
74926;SDS011;63488;48.092;-1.640;2023-04-16T03:02:32;7.10;;;2.78;;
74926;SDS011;63488;48.092;-1.640;2023-04-16T03:04:58;5.05;;;2.80;;
74926;SDS011;63488;48.092;-1.640;2023-04-16T03:07:23;6.93;;;3.08;;
74926;SDS011;63488;48.092;-1.640;2023-04-16T03:09:48;4.75;;;2.63;;
74926;SDS011;63488;48.092;-1.640;2023-04-16T03:12:14;5.20;;;2.50;;
74926;SDS011;63488;48.092;-1.640;2023-04-16T03:14:39;6.20;;;2.85;;
74926;SDS011;63488;48.092;-1.640;2023-04-16T03:17:05;6.13;;;2.72;;
74926;SDS011;63488;48.092;-1.640;2023-04-16T03:19:30;5.10;;;2.63;;
74926;SDS011;63488;48.092;-1.640;2023-04-16T03:21:56;7.65;;;2.88;;
74926;SDS011;63488;48.092;-1.640;2023-04-16T03:24:21;4.22;;;2.42;;
74926;SDS011;63488;48.092;-1.640;2023-04-16T03:26:46;6.63;;;2.90;;
74926;SDS011;63488;48.092;-1.640;2023-04-16T03:29:11;7.72;;;2.67;;
74926;SDS011;63488;48.092;-1.640;2023-04-16T03:31:37;6.88;;;3.10;;
74926;SDS011;63488;48.092;-1.640;2023-04-16T03:34:02;5.05;;;2.83;;
74926;SDS011;63488;48.092;-1.640;2023-04-16T03:36:27;4.57;;;2.22;;
74926;SDS011;63488;48.092;-1.640;2023-04-16T03:38:53;5.80;;;2.72;;
74926;SDS011;63488;48.092;-1.640;2023-04-16T03:41:18;4.78;;;3.00;;
74926;SDS011;63488;48.092;-1.640;2023-04-16T03:43:43;5.72;;;2.70;;
74926;SDS011;63488;48.092;-1.640;2023-04-16T03:46:09;7.63;;;2.85;;
74926;SDS011;63488;48.092;-1.640;2023-04-16T03:48:34;7.22;;;2.80;;
74926;SDS011;63488;48.092;-1.640;2023-04-16T03:51:00;6.07;;;2.78;;
74926;SDS011;63488;48.092;-1.640;2023-04-16T03:53:26;6.43;;;2.67;;
74926;SDS011;63488;48.092;-1.640;2023-04-16T03:55:51;5.57;;;2.67;;
74926;SDS011;63488;48.092;-1.640;2023-04-16T03:58:17;4.95;;;2.90;;
74926;SDS011;63488;48.092;-1.640;2023-04-16T04:00:42;3.70;;;2.58;;
74926;SDS011;63488;48.092;-1.640;2023-04-16T04:03:10;4.03;;;2.70;;
74926;SDS011;63488;48.092;-1.640;2023-04-16T04:05:37;3.75;;;2.08;;
74926;SDS011;63488;48.092;-1.640;2023-04-16T04:08:03;5.68;;;2.65;;
74926;SDS011;63488;48.092;-1.640;2023-04-16T04:10:30;8.38;;;2.92;;
74926;SDS011;63488;48.092;-1.640;2023-04-16T04:12:55;5.90;;;2.95;;
74926;SDS011;63488;48.092;-1.640;2023-04-16T04:15:21;8.00;;;3.15;;
74926;SDS011;63488;48.092;-1.640;2023-04-16T04:17:46;4.13;;;2.97;;
74926;SDS011;63488;48.092;-1.640;2023-04-16T04:20:11;7.00;;;2.50;;
74926;SDS011;63488;48.092;-1.640;2023-04-16T04:22:37;5.05;;;3.15;;
74926;SDS011;63488;48.092;-1.640;2023-04-16T04:25:02;5.70;;;3.22;;
74926;SDS011;63488;48.092;-1.640;2023-04-16T04:27:27;5.28;;;3.08;;
74926;SDS011;63488;48.092;-1.640;2023-04-16T04:29:53;4.43;;;3.10;;
74926;SDS011;63488;48.092;-1.640;2023-04-16T04:32:18;6.45;;;3.10;;
74926;SDS011;63488;48.092;-1.640;2023-04-16T04:34:43;4.13;;;2.90;;
74926;SDS011;63488;48.092;-1.640;2023-04-16T04:37:09;7.53;;;3.25;;
74926;SDS011;63488;48.092;-1.640;2023-04-16T04:39:34;4.45;;;3.17;;
74926;SDS011;63488;48.092;-1.640;2023-04-16T04:42:00;5.88;;;3.00;;
74926;SDS011;63488;48.092;-1.640;2023-04-16T04:44:27;3.80;;;2.63;;
74926;SDS011;63488;48.092;-1.640;2023-04-16T04:46:52;4.97;;;2.92;;
74926;SDS011;63488;48.092;-1.640;2023-04-16T04:49:17;4.85;;;3.03;;
74926;SDS011;63488;48.092;-1.640;2023-04-16T04:51:43;5.13;;;3.30;;
74926;SDS011;63488;48.092;-1.640;2023-04-16T04:54:08;5.93;;;3.00;;
74926;SDS011;63488;48.092;-1.640;2023-04-16T04:56:33;5.20;;;2.97;;
74926;SDS011;63488;48.092;-1.640;2023-04-16T04:58:59;5.80;;;3.28;;
74926;SDS011;63488;48.092;-1.640;2023-04-16T05:01:24;5.78;;;2.95;;
74926;SDS011;63488;48.092;-1.640;2023-04-16T05:03:50;5.22;;;3.05;;
74926;SDS011;63488;48.092;-1.640;2023-04-16T05:06:15;6.07;;;3.10;;
74926;SDS011;63488;48.092;-1.640;2023-04-16T05:08:40;5.55;;;3.17;;
74926;SDS011;63488;48.092;-1.640;2023-04-16T05:11:06;5.82;;;2.83;;
74926;SDS011;63488;48.092;-1.640;2023-04-16T05:13:31;8.85;;;3.10;;
74926;SDS011;63488;48.092;-1.640;2023-04-16T05:15:56;5.90;;;3.00;;
74926;SDS011;63488;48.092;-1.640;2023-04-16T05:18:21;7.22;;;3.22;;
74926;SDS011;63488;48.092;-1.640;2023-04-16T05:20:47;7.07;;;3.25;;
74926;SDS011;63488;48.092;-1.640;2023-04-16T05:23:12;5.13;;;2.97;;
74926;SDS011;63488;48.092;-1.640;2023-04-16T05:25:39;6.32;;;3.10;;
74926;SDS011;63488;48.092;-1.640;2023-04-16T05:28:05;7.80;;;3.10;;
74926;SDS011;63488;48.092;-1.640;2023-04-16T05:30:30;5.88;;;3.65;;
74926;SDS011;63488;48.092;-1.640;2023-04-16T05:32:55;7.13;;;3.50;;
74926;SDS011;63488;48.092;-1.640;2023-04-16T05:35:21;6.18;;;3.60;;
74926;SDS011;63488;48.092;-1.640;2023-04-16T05:37:46;6.03;;;3.33;;
74926;SDS011;63488;48.092;-1.640;2023-04-16T05:40:12;6.53;;;3.42;;
74926;SDS011;63488;48.092;-1.640;2023-04-16T05:42:37;4.10;;;3.40;;
74926;SDS011;63488;48.092;-1.640;2023-04-16T05:45:03;6.05;;;3.55;;
74926;SDS011;63488;48.092;-1.640;2023-04-16T05:47:28;5.32;;;3.70;;
74926;SDS011;63488;48.092;-1.640;2023-04-16T05:49:54;6.05;;;4.00;;
74926;SDS011;63488;48.092;-1.640;2023-04-16T05:52:19;5.15;;;3.55;;
74926;SDS011;63488;48.092;-1.640;2023-04-16T05:54:44;5.15;;;3.33;;
74926;SDS011;63488;48.092;-1.640;2023-04-16T05:57:11;4.95;;;3.65;;
74926;SDS011;63488;48.092;-1.640;2023-04-16T05:59:37;5.28;;;3.67;;
74926;SDS011;63488;48.092;-1.640;2023-04-16T06:02:02;9.57;;;3.83;;
74926;SDS011;63488;48.092;-1.640;2023-04-16T06:04:27;7.60;;;3.95;;
74926;SDS011;63488;48.092;-1.640;2023-04-16T06:06:55;5.43;;;3.70;;
74926;SDS011;63488;48.092;-1.640;2023-04-16T06:09:20;7.47;;;4.18;;
74926;SDS011;63488;48.092;-1.640;2023-04-16T06:11:45;6.15;;;4.00;;
74926;SDS011;63488;48.092;-1.640;2023-04-16T06:14:11;4.85;;;3.47;;
74926;SDS011;63488;48.092;-1.640;2023-04-16T06:16:36;5.32;;;3.40;;
74926;SDS011;63488;48.092;-1.640;2023-04-16T06:19:01;7.05;;;3.90;;
74926;SDS011;63488;48.092;-1.640;2023-04-16T06:21:27;6.07;;;4.15;;
74926;SDS011;63488;48.092;-1.640;2023-04-16T06:23:53;7.13;;;4.20;;
74926;SDS011;63488;48.092;-1.640;2023-04-16T06:26:18;6.30;;;3.95;;
74926;SDS011;63488;48.092;-1.640;2023-04-16T06:28:43;6.07;;;4.18;;
74926;SDS011;63488;48.092;-1.640;2023-04-16T06:31:09;4.35;;;3.88;;
74926;SDS011;63488;48.092;-1.640;2023-04-16T06:33:34;8.07;;;3.80;;
74926;SDS011;63488;48.092;-1.640;2023-04-16T06:35:59;7.10;;;4.07;;
74926;SDS011;63488;48.092;-1.640;2023-04-16T06:38:25;9.25;;;4.15;;
74926;SDS011;63488;48.092;-1.640;2023-04-16T06:40:50;6.07;;;4.05;;
74926;SDS011;63488;48.092;-1.640;2023-04-16T06:43:15;5.90;;;3.90;;
74926;SDS011;63488;48.092;-1.640;2023-04-16T06:45:41;8.75;;;4.35;;
74926;SDS011;63488;48.092;-1.640;2023-04-16T06:48:07;6.80;;;4.07;;
74926;SDS011;63488;48.092;-1.640;2023-04-16T06:50:32;5.60;;;3.80;;
74926;SDS011;63488;48.092;-1.640;2023-04-16T06:52:58;7.53;;;4.55;;
74926;SDS011;63488;48.092;-1.640;2023-04-16T06:55:23;6.97;;;4.32;;
74926;SDS011;63488;48.092;-1.640;2023-04-16T06:57:49;7.65;;;4.10;;
74926;SDS011;63488;48.092;-1.640;2023-04-16T07:00:14;6.07;;;4.00;;
74926;SDS011;63488;48.092;-1.640;2023-04-16T07:02:39;5.22;;;3.72;;
74926;SDS011;63488;48.092;-1.640;2023-04-16T07:05:05;6.13;;;3.72;;
74926;SDS011;63488;48.092;-1.640;2023-04-16T07:07:31;8.18;;;3.97;;
74926;SDS011;63488;48.092;-1.640;2023-04-16T07:09:56;7.72;;;4.55;;
74926;SDS011;63488;48.092;-1.640;2023-04-16T07:12:21;6.82;;;4.43;;
74926;SDS011;63488;48.092;-1.640;2023-04-16T07:14:47;6.18;;;4.50;;
74926;SDS011;63488;48.092;-1.640;2023-04-16T07:17:12;10.00;;;4.30;;
74926;SDS011;63488;48.092;-1.640;2023-04-16T07:19:37;7.18;;;4.68;;
74926;SDS011;63488;48.092;-1.640;2023-04-16T07:22:03;6.93;;;4.53;;
74926;SDS011;63488;48.092;-1.640;2023-04-16T07:24:28;7.47;;;4.40;;
74926;SDS011;63488;48.092;-1.640;2023-04-16T07:26:54;7.63;;;4.38;;
74926;SDS011;63488;48.092;-1.640;2023-04-16T07:29:19;8.55;;;4.80;;
74926;SDS011;63488;48.092;-1.640;2023-04-16T07:31:45;8.93;;;5.05;;
74926;SDS011;63488;48.092;-1.640;2023-04-16T07:34:10;8.02;;;4.35;;
74926;SDS011;63488;48.092;-1.640;2023-04-16T07:36:35;8.68;;;4.75;;
74926;SDS011;63488;48.092;-1.640;2023-04-16T07:39:01;7.28;;;4.70;;
74926;SDS011;63488;48.092;-1.640;2023-04-16T07:41:26;7.13;;;4.50;;
74926;SDS011;63488;48.092;-1.640;2023-04-16T07:43:53;7.90;;;4.65;;
74926;SDS011;63488;48.092;-1.640;2023-04-16T07:46:18;6.80;;;4.80;;
74926;SDS011;63488;48.092;-1.640;2023-04-16T07:48:44;10.57;;;5.72;;
74926;SDS011;63488;48.092;-1.640;2023-04-16T07:51:09;7.78;;;4.90;;
74926;SDS011;63488;48.092;-1.640;2023-04-16T07:53:35;10.18;;;4.93;;
74926;SDS011;63488;48.092;-1.640;2023-04-16T07:56:00;7.28;;;4.95;;
74926;SDS011;63488;48.092;-1.640;2023-04-16T07:58:25;6.45;;;4.72;;
74926;SDS011;63488;48.092;-1.640;2023-04-16T08:00:51;7.05;;;5.18;;
74926;SDS011;63488;48.092;-1.640;2023-04-16T08:03:16;7.57;;;4.93;;
74926;SDS011;63488;48.092;-1.640;2023-04-16T08:05:42;5.00;;;4.43;;
74926;SDS011;63488;48.092;-1.640;2023-04-16T08:08:07;5.65;;;4.53;;
74926;SDS011;63488;48.092;-1.640;2023-04-16T08:10:32;7.32;;;4.75;;
74926;SDS011;63488;48.092;-1.640;2023-04-16T08:12:59;5.90;;;4.65;;
74926;SDS011;63488;48.092;-1.640;2023-04-16T08:15:24;8.65;;;4.78;;
74926;SDS011;63488;48.092;-1.640;2023-04-16T08:17:50;5.72;;;4.30;;
74926;SDS011;63488;48.092;-1.640;2023-04-16T08:20:16;5.88;;;3.80;;
74926;SDS011;63488;48.092;-1.640;2023-04-16T08:22:41;8.38;;;4.07;;
74926;SDS011;63488;48.092;-1.640;2023-04-16T08:25:06;5.90;;;3.83;;
74926;SDS011;63488;48.092;-1.640;2023-04-16T08:27:32;5.85;;;3.40;;
74926;SDS011;63488;48.092;-1.640;2023-04-16T08:29:57;5.20;;;3.67;;
74926;SDS011;63488;48.092;-1.640;2023-04-16T08:32:23;6.15;;;3.90;;
74926;SDS011;63488;48.092;-1.640;2023-04-16T08:34:48;5.65;;;3.35;;
74926;SDS011;63488;48.092;-1.640;2023-04-16T08:37:13;7.65;;;3.42;;
74926;SDS011;63488;48.092;-1.640;2023-04-16T08:39:39;4.05;;;2.78;;
74926;SDS011;63488;48.092;-1.640;2023-04-16T08:42:04;6.10;;;3.08;;
74926;SDS011;63488;48.092;-1.640;2023-04-16T08:44:33;6.40;;;2.85;;
74926;SDS011;63488;48.092;-1.640;2023-04-16T08:46:59;4.68;;;2.60;;
74926;SDS011;63488;48.092;-1.640;2023-04-16T08:49:25;3.65;;;2.50;;
74926;SDS011;63488;48.092;-1.640;2023-04-16T08:51:51;4.65;;;2.30;;
74926;SDS011;63488;48.092;-1.640;2023-04-16T08:54:24;4.47;;;2.35;;
74926;SDS011;63488;48.092;-1.640;2023-04-16T08:56:54;3.80;;;2.30;;
74926;SDS011;63488;48.092;-1.640;2023-04-16T08:59:21;3.25;;;2.17;;
74926;SDS011;63488;48.092;-1.640;2023-04-16T09:01:47;4.20;;;2.10;;
74926;SDS011;63488;48.092;-1.640;2023-04-16T09:04:13;3.20;;;2.45;;
74926;SDS011;63488;48.092;-1.640;2023-04-16T09:06:39;3.95;;;2.03;;
74926;SDS011;63488;48.092;-1.640;2023-04-16T09:09:06;3.63;;;2.50;;
74926;SDS011;63488;48.092;-1.640;2023-04-16T09:11:32;4.75;;;2.33;;
74926;SDS011;63488;48.092;-1.640;2023-04-16T09:13:58;3.97;;;3.00;;
74926;SDS011;63488;48.092;-1.640;2023-04-16T09:16:24;3.55;;;3.03;;
74926;SDS011;63488;48.092;-1.640;2023-04-16T09:18:51;2.72;;;2.42;;
74926;SDS011;63488;48.092;-1.640;2023-04-16T09:21:16;5.00;;;3.22;;
74926;SDS011;63488;48.092;-1.640;2023-04-16T09:23:43;4.60;;;3.20;;
74926;SDS011;63488;48.092;-1.640;2023-04-16T09:26:08;3.55;;;2.80;;
74926;SDS011;63488;48.092;-1.640;2023-04-16T09:28:37;4.75;;;3.10;;
74926;SDS011;63488;48.092;-1.640;2023-04-16T09:31:16;4.93;;;3.30;;
74926;SDS011;63488;48.092;-1.640;2023-04-16T09:33:41;5.20;;;2.55;;
74926;SDS011;63488;48.092;-1.640;2023-04-16T09:36:07;4.35;;;2.60;;
74926;SDS011;63488;48.092;-1.640;2023-04-16T09:38:46;5.18;;;3.05;;
74926;SDS011;63488;48.092;-1.640;2023-04-16T09:41:12;5.00;;;2.78;;
74926;SDS011;63488;48.092;-1.640;2023-04-16T09:43:37;4.72;;;2.70;;
74926;SDS011;63488;48.092;-1.640;2023-04-16T09:46:03;6.60;;;3.08;;
74926;SDS011;63488;48.092;-1.640;2023-04-16T09:48:31;7.22;;;3.83;;
74926;SDS011;63488;48.092;-1.640;2023-04-16T09:50:57;4.67;;;3.37;;
74926;SDS011;63488;48.092;-1.640;2023-04-16T09:53:31;6.32;;;3.20;;
74926;SDS011;63488;48.092;-1.640;2023-04-16T09:55:57;7.63;;;3.65;;
74926;SDS011;63488;48.092;-1.640;2023-04-16T09:58:23;5.95;;;3.47;;
74926;SDS011;63488;48.092;-1.640;2023-04-16T10:00:48;5.07;;;3.15;;
74926;SDS011;63488;48.092;-1.640;2023-04-16T10:03:14;5.43;;;3.65;;
74926;SDS011;63488;48.092;-1.640;2023-04-16T10:05:41;4.38;;;3.30;;
74926;SDS011;63488;48.092;-1.640;2023-04-16T10:08:10;7.28;;;3.30;;
74926;SDS011;63488;48.092;-1.640;2023-04-16T10:10:35;6.25;;;3.60;;
74926;SDS011;63488;48.092;-1.640;2023-04-16T10:13:01;7.35;;;3.63;;
74926;SDS011;63488;48.092;-1.640;2023-04-16T10:15:26;5.78;;;3.92;;
74926;SDS011;63488;48.092;-1.640;2023-04-16T10:17:52;5.68;;;3.78;;
74926;SDS011;63488;48.092;-1.640;2023-04-16T10:20:17;7.03;;;4.20;;
74926;SDS011;63488;48.092;-1.640;2023-04-16T10:22:43;5.82;;;4.07;;
74926;SDS011;63488;48.092;-1.640;2023-04-16T10:25:08;9.88;;;4.88;;
74926;SDS011;63488;48.092;-1.640;2023-04-16T10:27:34;9.20;;;3.85;;
74926;SDS011;63488;48.092;-1.640;2023-04-16T10:30:01;6.20;;;3.40;;
74926;SDS011;63488;48.092;-1.640;2023-04-16T10:32:26;7.53;;;4.30;;
74926;SDS011;63488;48.092;-1.640;2023-04-16T10:34:53;6.75;;;4.32;;
74926;SDS011;63488;48.092;-1.640;2023-04-16T10:37:19;6.13;;;3.78;;
74926;SDS011;63488;48.092;-1.640;2023-04-16T10:39:52;6.28;;;3.55;;
74926;SDS011;63488;48.092;-1.640;2023-04-16T10:42:18;4.82;;;3.60;;
74926;SDS011;63488;48.092;-1.640;2023-04-16T10:44:43;6.25;;;3.80;;
74926;SDS011;63488;48.092;-1.640;2023-04-16T10:47:10;7.32;;;3.50;;
74926;SDS011;63488;48.092;-1.640;2023-04-16T10:49:36;6.60;;;3.83;;
74926;SDS011;63488;48.092;-1.640;2023-04-16T10:52:14;7.45;;;4.03;;
74926;SDS011;63488;48.092;-1.640;2023-04-16T10:54:41;7.55;;;4.40;;
74926;SDS011;63488;48.092;-1.640;2023-04-16T10:57:11;7.85;;;4.40;;
74926;SDS011;63488;48.092;-1.640;2023-04-16T10:59:40;7.30;;;3.95;;
74926;SDS011;63488;48.092;-1.640;2023-04-16T11:02:07;6.90;;;3.90;;
74926;SDS011;63488;48.092;-1.640;2023-04-16T11:04:36;5.25;;;3.28;;
74926;SDS011;63488;48.092;-1.640;2023-04-16T11:07:06;7.90;;;3.90;;
74926;SDS011;63488;48.092;-1.640;2023-04-16T11:09:44;4.93;;;3.40;;
74926;SDS011;63488;48.092;-1.640;2023-04-16T11:12:14;7.15;;;3.35;;
74926;SDS011;63488;48.092;-1.640;2023-04-16T11:14:40;7.93;;;3.75;;
74926;SDS011;63488;48.092;-1.640;2023-04-16T11:17:06;5.18;;;3.25;;
74926;SDS011;63488;48.092;-1.640;2023-04-16T11:19:31;5.82;;;3.65;;
74926;SDS011;63488;48.092;-1.640;2023-04-16T11:21:57;9.35;;;4.07;;
74926;SDS011;63488;48.092;-1.640;2023-04-16T11:24:22;6.57;;;3.90;;
74926;SDS011;63488;48.092;-1.640;2023-04-16T11:26:50;7.35;;;4.07;;
74926;SDS011;63488;48.092;-1.640;2023-04-16T11:29:15;7.32;;;4.43;;
74926;SDS011;63488;48.092;-1.640;2023-04-16T11:31:41;5.65;;;3.90;;
74926;SDS011;63488;48.092;-1.640;2023-04-16T11:34:06;8.02;;;3.67;;
74926;SDS011;63488;48.092;-1.640;2023-04-16T11:36:44;5.63;;;3.00;;
74926;SDS011;63488;48.092;-1.640;2023-04-16T11:39:10;6.75;;;4.07;;
74926;SDS011;63488;48.092;-1.640;2023-04-16T11:41:41;7.03;;;4.13;;
74926;SDS011;63488;48.092;-1.640;2023-04-16T11:44:16;6.00;;;4.10;;
74926;SDS011;63488;48.092;-1.640;2023-04-16T11:46:42;6.32;;;3.47;;
74926;SDS011;63488;48.092;-1.640;2023-04-16T11:49:07;8.07;;;4.03;;
74926;SDS011;63488;48.092;-1.640;2023-04-16T11:51:37;7.05;;;4.32;;
74926;SDS011;63488;48.092;-1.640;2023-04-16T11:54:03;8.07;;;4.72;;
74926;SDS011;63488;48.092;-1.640;2023-04-16T11:56:29;11.05;;;6.07;;
74926;SDS011;63488;48.092;-1.640;2023-04-16T11:59:07;8.88;;;4.50;;
74926;SDS011;63488;48.092;-1.640;2023-04-16T12:01:34;9.00;;;4.65;;
74926;SDS011;63488;48.092;-1.640;2023-04-16T12:04:02;6.25;;;4.15;;
74926;SDS011;63488;48.092;-1.640;2023-04-16T12:06:27;5.80;;;4.15;;
74926;SDS011;63488;48.092;-1.640;2023-04-16T12:08:53;6.75;;;3.92;;
74926;SDS011;63488;48.092;-1.640;2023-04-16T12:11:18;7.65;;;3.70;;
74926;SDS011;63488;48.092;-1.640;2023-04-16T12:16:28;6.20;;;4.07;;
74926;SDS011;63488;48.092;-1.640;2023-04-16T12:19:00;8.02;;;3.30;;
74926;SDS011;63488;48.092;-1.640;2023-04-16T12:21:38;7.45;;;3.60;;
74926;SDS011;63488;48.092;-1.640;2023-04-16T12:24:04;5.72;;;3.30;;
74926;SDS011;63488;48.092;-1.640;2023-04-16T12:26:37;6.97;;;3.50;;
74926;SDS011;63488;48.092;-1.640;2023-04-16T12:29:15;5.80;;;3.30;;
74926;SDS011;63488;48.092;-1.640;2023-04-16T12:31:41;5.30;;;3.00;;
74926;SDS011;63488;48.092;-1.640;2023-04-16T12:34:06;9.55;;;3.25;;
74926;SDS011;63488;48.092;-1.640;2023-04-16T12:36:32;7.38;;;2.97;;
74926;SDS011;63488;48.092;-1.640;2023-04-16T12:38:57;6.03;;;3.50;;
74926;SDS011;63488;48.092;-1.640;2023-04-16T12:41:22;4.60;;;2.30;;
74926;SDS011;63488;48.092;-1.640;2023-04-16T12:43:48;3.95;;;2.65;;
74926;SDS011;63488;48.092;-1.640;2023-04-16T12:46:13;5.43;;;2.60;;
74926;SDS011;63488;48.092;-1.640;2023-04-16T12:48:38;5.53;;;2.83;;
74926;SDS011;63488;48.092;-1.640;2023-04-16T12:51:04;6.50;;;2.33;;
74926;SDS011;63488;48.092;-1.640;2023-04-16T12:53:29;6.15;;;2.25;;
74926;SDS011;63488;48.092;-1.640;2023-04-16T12:55:55;7.18;;;2.63;;
74926;SDS011;63488;48.092;-1.640;2023-04-16T12:58:20;8.68;;;2.97;;
74926;SDS011;63488;48.092;-1.640;2023-04-16T13:00:45;5.43;;;2.70;;
74926;SDS011;63488;48.092;-1.640;2023-04-16T13:03:11;4.95;;;2.67;;
74926;SDS011;63488;48.092;-1.640;2023-04-16T13:05:36;5.40;;;3.05;;
74926;SDS011;63488;48.092;-1.640;2023-04-16T13:08:01;5.43;;;2.92;;
74926;SDS011;63488;48.092;-1.640;2023-04-16T13:10:27;4.03;;;2.50;;
74926;SDS011;63488;48.092;-1.640;2023-04-16T13:12:52;4.82;;;2.53;;
74926;SDS011;63488;48.092;-1.640;2023-04-16T13:15:18;8.40;;;3.08;;
74926;SDS011;63488;48.092;-1.640;2023-04-16T13:17:43;6.30;;;3.38;;
74926;SDS011;63488;48.092;-1.640;2023-04-16T13:20:08;4.88;;;2.60;;
74926;SDS011;63488;48.092;-1.640;2023-04-16T13:22:34;4.78;;;2.50;;
74926;SDS011;63488;48.092;-1.640;2023-04-16T13:24:59;5.55;;;2.78;;
74926;SDS011;63488;48.092;-1.640;2023-04-16T13:27:25;6.40;;;2.83;;
74926;SDS011;63488;48.092;-1.640;2023-04-16T13:29:50;5.22;;;2.30;;
74926;SDS011;63488;48.092;-1.640;2023-04-16T13:32:15;3.85;;;2.10;;
74926;SDS011;63488;48.092;-1.640;2023-04-16T13:34:42;5.35;;;2.38;;
74926;SDS011;63488;48.092;-1.640;2023-04-16T13:37:08;7.75;;;2.95;;
74926;SDS011;63488;48.092;-1.640;2023-04-16T13:39:33;5.78;;;2.67;;
74926;SDS011;63488;48.092;-1.640;2023-04-16T13:41:58;5.70;;;2.20;;
74926;SDS011;63488;48.092;-1.640;2023-04-16T13:44:24;4.88;;;2.08;;
74926;SDS011;63488;48.092;-1.640;2023-04-16T13:46:49;4.25;;;2.10;;
74926;SDS011;63488;48.092;-1.640;2023-04-16T13:49:15;6.00;;;2.47;;
74926;SDS011;63488;48.092;-1.640;2023-04-16T13:51:44;4.78;;;2.47;;
74926;SDS011;63488;48.092;-1.640;2023-04-16T13:54:09;4.40;;;2.40;;
74926;SDS011;63488;48.092;-1.640;2023-04-16T13:56:35;4.35;;;2.28;;
74926;SDS011;63488;48.092;-1.640;2023-04-16T13:59:00;5.00;;;2.40;;
74926;SDS011;63488;48.092;-1.640;2023-04-16T14:01:25;5.63;;;2.40;;
74926;SDS011;63488;48.092;-1.640;2023-04-16T14:03:50;4.15;;;2.10;;
74926;SDS011;63488;48.092;-1.640;2023-04-16T14:06:16;5.07;;;2.25;;
74926;SDS011;63488;48.092;-1.640;2023-04-16T14:08:42;3.83;;;2.10;;
74926;SDS011;63488;48.092;-1.640;2023-04-16T14:11:07;6.75;;;2.33;;
74926;SDS011;63488;48.092;-1.640;2023-04-16T14:13:33;4.43;;;2.30;;
74926;SDS011;63488;48.092;-1.640;2023-04-16T14:15:58;5.20;;;2.00;;
74926;SDS011;63488;48.092;-1.640;2023-04-16T14:18:24;3.45;;;2.00;;
74926;SDS011;63488;48.092;-1.640;2023-04-16T14:20:49;3.92;;;2.30;;
74926;SDS011;63488;48.092;-1.640;2023-04-16T14:23:15;4.15;;;2.08;;
74926;SDS011;63488;48.092;-1.640;2023-04-16T14:25:40;5.18;;;2.42;;
74926;SDS011;63488;48.092;-1.640;2023-04-16T14:28:06;4.53;;;2.00;;